sensor_id;sensor_type;location;lat;lon;timestamp;pressure;altitude;pressure_sealevel;temperature;humidity
53011;BME280;42803;55.762;38.084;2022-11-18T00:01:43;98863.44;;;-7.62;100.00
53011;BME280;42803;55.762;38.084;2022-11-18T00:04:12;98864.53;;;-7.72;100.00
53011;BME280;42803;55.762;38.084;2022-11-18T00:06:41;98865.00;;;-7.75;100.00
53011;BME280;42803;55.762;38.084;2022-11-18T00:09:10;98852.16;;;-7.76;100.00
53011;BME280;42803;55.762;38.084;2022-11-18T00:11:39;98867.44;;;-7.82;100.00
53011;BME280;42803;55.762;38.084;2022-11-18T00:14:27;98868.25;;;-7.76;100.00
53011;BME280;42803;55.762;38.084;2022-11-18T00:16:57;98855.72;;;-7.69;100.00
53011;BME280;42803;55.762;38.084;2022-11-18T00:19:29;98851.94;;;-7.78;100.00
53011;BME280;42803;55.762;38.084;2022-11-18T00:21:58;98845.88;;;-7.73;100.00
53011;BME280;42803;55.762;38.084;2022-11-18T00:24:28;98849.91;;;-7.80;100.00
53011;BME280;42803;55.762;38.084;2022-11-18T00:26:57;98855.88;;;-7.80;100.00
53011;BME280;42803;55.762;38.084;2022-11-18T00:29:28;98850.22;;;-7.72;100.00
53011;BME280;42803;55.762;38.084;2022-11-18T00:31:58;98838.91;;;-7.68;100.00
53011;BME280;42803;55.762;38.084;2022-11-18T00:34:27;98843.34;;;-7.73;100.00
53011;BME280;42803;55.762;38.084;2022-11-18T00:36:56;98841.59;;;-7.79;100.00
53011;BME280;42803;55.762;38.084;2022-11-18T00:39:24;98839.19;;;-7.72;100.00
53011;BME280;42803;55.762;38.084;2022-11-18T00:41:53;98837.78;;;-7.70;100.00
53011;BME280;42803;55.762;38.084;2022-11-18T00:44:41;98841.53;;;-7.74;100.00
53011;BME280;42803;55.762;38.084;2022-11-18T00:47:10;98836.75;;;-7.78;100.00
53011;BME280;42803;55.762;38.084;2022-11-18T00:49:39;98830.56;;;-7.80;100.00
53011;BME280;42803;55.762;38.084;2022-11-18T00:52:08;98826.91;;;-7.82;100.00
53011;BME280;42803;55.762;38.084;2022-11-18T00:54:37;98822.25;;;-7.79;100.00
53011;BME280;42803;55.762;38.084;2022-11-18T00:57:06;98823.88;;;-7.79;100.00
53011;BME280;42803;55.762;38.084;2022-11-18T00:59:35;98821.31;;;-7.79;100.00
53011;BME280;42803;55.762;38.084;2022-11-18T01:02:05;98816.59;;;-7.71;100.00
53011;BME280;42803;55.762;38.084;2022-11-18T01:04:34;98812.53;;;-7.76;100.00
53011;BME280;42803;55.762;38.084;2022-11-18T01:07:03;98798.66;;;-7.72;100.00
53011;BME280;42803;55.762;38.084;2022-11-18T01:09:32;98804.22;;;-7.75;100.00
53011;BME280;42803;55.762;38.084;2022-11-18T01:12:01;98806.56;;;-7.76;100.00
53011;BME280;42803;55.762;38.084;2022-11-18T01:14:47;98806.19;;;-7.67;100.00
53011;BME280;42803;55.762;38.084;2022-11-18T01:17:18;98814.75;;;-7.72;99.65
53011;BME280;42803;55.762;38.084;2022-11-18T01:19:47;98807.88;;;-7.73;99.64
53011;BME280;42803;55.762;38.084;2022-11-18T01:22:16;98805.06;;;-7.69;99.50
53011;BME280;42803;55.762;38.084;2022-11-18T01:24:45;98803.66;;;-7.67;99.58
53011;BME280;42803;55.762;38.084;2022-11-18T01:27:14;98794.31;;;-7.73;99.42
53011;BME280;42803;55.762;38.084;2022-11-18T01:29:43;98791.47;;;-7.69;99.46
53011;BME280;42803;55.762;38.084;2022-11-18T01:32:12;98789.06;;;-7.62;99.51
53011;BME280;42803;55.762;38.084;2022-11-18T01:34:53;98795.81;;;-7.68;99.36
53011;BME280;42803;55.762;38.084;2022-11-18T01:37:22;98792.69;;;-7.60;99.22
53011;BME280;42803;55.762;38.084;2022-11-18T01:39:51;98803.66;;;-7.67;99.01
53011;BME280;42803;55.762;38.084;2022-11-18T01:42:20;98783.38;;;-7.67;98.55
53011;BME280;42803;55.762;38.084;2022-11-18T01:45:14;98784.47;;;-7.65;98.55
53011;BME280;42803;55.762;38.084;2022-11-18T01:47:50;98784.78;;;-7.69;98.71
53011;BME280;42803;55.762;38.084;2022-11-18T01:50:21;98782.13;;;-7.76;98.79
53011;BME280;42803;55.762;38.084;2022-11-18T01:52:52;98799.56;;;-7.72;98.80
53011;BME280;42803;55.762;38.084;2022-11-18T01:55:28;98794.31;;;-7.73;98.73
53011;BME280;42803;55.762;38.084;2022-11-18T01:58:04;98790.34;;;-7.71;98.87
53011;BME280;42803;55.762;38.084;2022-11-18T02:00:34;98797.56;;;-7.62;99.02
53011;BME280;42803;55.762;38.084;2022-11-18T02:03:04;98787.50;;;-7.67;98.88
53011;BME280;42803;55.762;38.084;2022-11-18T02:05:35;98802.53;;;-7.69;98.70
53011;BME280;42803;55.762;38.084;2022-11-18T02:08:05;98776.88;;;-7.65;98.61
53011;BME280;42803;55.762;38.084;2022-11-18T02:10:34;98777.00;;;-7.70;98.62
53011;BME280;42803;55.762;38.084;2022-11-18T02:13:03;98790.16;;;-7.60;98.71
53011;BME280;42803;55.762;38.084;2022-11-18T02:16:02;98785.50;;;-7.70;98.69
53011;BME280;42803;55.762;38.084;2022-11-18T02:18:41;98772.84;;;-7.70;98.76
53011;BME280;42803;55.762;38.084;2022-11-18T02:21:22;98775.13;;;-7.71;98.77
53011;BME280;42803;55.762;38.084;2022-11-18T02:24:26;98781.94;;;-7.65;98.99
53011;BME280;42803;55.762;38.084;2022-11-18T02:27:28;98781.47;;;-7.62;99.08
53011;BME280;42803;55.762;38.084;2022-11-18T02:30:04;98782.13;;;-7.63;99.06
53011;BME280;42803;55.762;38.084;2022-11-18T02:32:39;98771.50;;;-7.61;99.21
53011;BME280;42803;55.762;38.084;2022-11-18T02:35:14;98768.50;;;-7.58;99.04
53011;BME280;42803;55.762;38.084;2022-11-18T02:37:47;98775.47;;;-7.63;98.98
53011;BME280;42803;55.762;38.084;2022-11-18T02:40:21;98787.44;;;-7.62;99.31
53011;BME280;42803;55.762;38.084;2022-11-18T02:42:53;98764.81;;;-7.60;99.26
53011;BME280;42803;55.762;38.084;2022-11-18T02:45:26;98758.44;;;-7.64;99.18
53011;BME280;42803;55.762;38.084;2022-11-18T02:47:58;98762.81;;;-7.63;99.23
53011;BME280;42803;55.762;38.084;2022-11-18T02:50:28;98767.34;;;-7.60;99.37
53011;BME280;42803;55.762;38.084;2022-11-18T02:53:00;98763.19;;;-7.60;99.40
53011;BME280;42803;55.762;38.084;2022-11-18T02:55:33;98760.66;;;-7.60;99.35
53011;BME280;42803;55.762;38.084;2022-11-18T02:58:04;98752.88;;;-7.61;99.18
53011;BME280;42803;55.762;38.084;2022-11-18T03:00:35;98759.97;;;-7.58;99.42
53011;BME280;42803;55.762;38.084;2022-11-18T03:03:23;98754.19;;;-7.57;99.27
53011;BME280;42803;55.762;38.084;2022-11-18T03:06:01;98751.84;;;-7.56;99.31
53011;BME280;42803;55.762;38.084;2022-11-18T03:08:36;98756.00;;;-7.56;99.30
53011;BME280;42803;55.762;38.084;2022-11-18T03:11:11;98773.44;;;-7.52;99.17
53011;BME280;42803;55.762;38.084;2022-11-18T03:13:51;98750.75;;;-7.45;99.16
53011;BME280;42803;55.762;38.084;2022-11-18T03:16:29;98747.19;;;-7.53;98.88
53011;BME280;42803;55.762;38.084;2022-11-18T03:19:06;98764.75;;;-7.54;98.91
53011;BME280;42803;55.762;38.084;2022-11-18T03:21:40;98746.28;;;-7.53;98.82
53011;BME280;42803;55.762;38.084;2022-11-18T03:24:13;98752.38;;;-7.58;98.75
53011;BME280;42803;55.762;38.084;2022-11-18T03:26:49;98742.63;;;-7.55;98.73
53011;BME280;42803;55.762;38.084;2022-11-18T03:29:24;98747.41;;;-7.51;98.97
53011;BME280;42803;55.762;38.084;2022-11-18T03:31:58;98740.63;;;-7.45;98.83
53011;BME280;42803;55.762;38.084;2022-11-18T03:34:34;98736.56;;;-7.50;98.58
53011;BME280;42803;55.762;38.084;2022-11-18T03:37:07;98740.31;;;-7.54;98.59
53011;BME280;42803;55.762;38.084;2022-11-18T03:39:40;98736.47;;;-7.57;98.46
53011;BME280;42803;55.762;38.084;2022-11-18T03:42:13;98744.47;;;-7.54;98.62
53011;BME280;42803;55.762;38.084;2022-11-18T03:44:46;98729.56;;;-7.46;98.56
53011;BME280;42803;55.762;38.084;2022-11-18T03:47:25;98733.72;;;-7.46;98.64
53011;BME280;42803;55.762;38.084;2022-11-18T03:49:59;98736.56;;;-7.50;98.69
53011;BME280;42803;55.762;38.084;2022-11-18T03:52:32;98739.09;;;-7.50;98.57
53011;BME280;42803;55.762;38.084;2022-11-18T03:55:08;98732.91;;;-7.52;98.46
53011;BME280;42803;55.762;38.084;2022-11-18T03:57:43;98739.50;;;-7.47;98.81
53011;BME280;42803;55.762;38.084;2022-11-18T04:00:16;98737.97;;;-7.52;98.96
53011;BME280;42803;55.762;38.084;2022-11-18T04:02:51;98736.25;;;-7.46;99.17
53011;BME280;42803;55.762;38.084;2022-11-18T04:05:20;98730.59;;;-7.51;98.87
53011;BME280;42803;55.762;38.084;2022-11-18T04:07:54;98729.47;;;-7.53;98.66
53011;BME280;42803;55.762;38.084;2022-11-18T04:10:28;98735.97;;;-7.55;98.80
53011;BME280;42803;55.762;38.084;2022-11-18T04:13:01;98731.09;;;-7.53;98.99
53011;BME280;42803;55.762;38.084;2022-11-18T04:15:36;98744.69;;;-7.40;99.15
53011;BME280;42803;55.762;38.084;2022-11-18T04:18:07;98727.22;;;-7.44;98.83
53011;BME280;42803;55.762;38.084;2022-11-18T04:20:37;98747.81;;;-7.48;98.77
53011;BME280;42803;55.762;38.084;2022-11-18T04:23:06;98725.00;;;-7.48;98.69
53011;BME280;42803;55.762;38.084;2022-11-18T04:25:36;98727.34;;;-7.50;98.82
53011;BME280;42803;55.762;38.084;2022-11-18T04:28:05;98735.13;;;-7.48;98.82
53011;BME280;42803;55.762;38.084;2022-11-18T04:30:34;98733.31;;;-7.49;98.86
53011;BME280;42803;55.762;38.084;2022-11-18T04:33:03;98733.50;;;-7.48;98.91
53011;BME280;42803;55.762;38.084;2022-11-18T04:35:33;98733.91;;;-7.45;99.06
53011;BME280;42803;55.762;38.084;2022-11-18T04:38:02;98733.31;;;-7.49;99.03
53011;BME280;42803;55.762;38.084;2022-11-18T04:40:31;98734.81;;;-7.44;99.24
53011;BME280;42803;55.762;38.084;2022-11-18T04:43:00;98723.19;;;-7.49;99.12
53011;BME280;42803;55.762;38.084;2022-11-18T04:45:29;98729.69;;;-7.51;98.85
53011;BME280;42803;55.762;38.084;2022-11-18T04:47:58;98734.75;;;-7.51;99.05
53011;BME280;42803;55.762;38.084;2022-11-18T04:50:30;98728.97;;;-7.50;99.46
53011;BME280;42803;55.762;38.084;2022-11-18T04:53:00;98724.09;;;-7.49;99.49
53011;BME280;42803;55.762;38.084;2022-11-18T04:55:29;98723.91;;;-7.50;99.37
53011;BME280;42803;55.762;38.084;2022-11-18T04:57:58;98722.47;;;-7.48;99.40
53011;BME280;42803;55.762;38.084;2022-11-18T05:00:27;98722.28;;;-7.50;99.52
53011;BME280;42803;55.762;38.084;2022-11-18T05:02:57;98729.69;;;-7.51;99.58
53011;BME280;42803;55.762;38.084;2022-11-18T05:05:26;98732.59;;;-7.48;99.70
53011;BME280;42803;55.762;38.084;2022-11-18T05:07:55;98723.91;;;-7.50;100.00
53011;BME280;42803;55.762;38.084;2022-11-18T05:10:25;98724.31;;;-7.47;100.00
53011;BME280;42803;55.762;38.084;2022-11-18T05:12:54;98737.78;;;-7.41;100.00
53011;BME280;42803;55.762;38.084;2022-11-18T05:15:22;98734.44;;;-7.34;100.00
53011;BME280;42803;55.762;38.084;2022-11-18T05:17:51;98733.84;;;-7.39;99.70
53011;BME280;42803;55.762;38.084;2022-11-18T05:20:20;98742.44;;;-7.44;99.74
53011;BME280;42803;55.762;38.084;2022-11-18T05:22:49;98729.69;;;-7.51;99.77
53011;BME280;42803;55.762;38.084;2022-11-18T05:25:18;98729.88;;;-7.50;99.97
53011;BME280;42803;55.762;38.084;2022-11-18T05:27:48;98720.94;;;-7.53;100.00
53011;BME280;42803;55.762;38.084;2022-11-18T05:30:18;98735.84;;;-7.49;100.00
53011;BME280;42803;55.762;38.084;2022-11-18T05:32:47;98734.13;;;-7.43;100.00
53011;BME280;42803;55.762;38.084;2022-11-18T05:35:16;98733.72;;;-7.46;100.00
53011;BME280;42803;55.762;38.084;2022-11-18T05:37:45;98745.28;;;-7.48;100.00
53011;BME280;42803;55.762;38.084;2022-11-18T05:40:14;98740.63;;;-7.45;100.00
53011;BME280;42803;55.762;38.084;2022-11-18T05:42:43;98749.03;;;-7.39;100.00
53011;BME280;42803;55.762;38.084;2022-11-18T05:45:30;98747.59;;;-7.37;100.00
53011;BME280;42803;55.762;38.084;2022-11-18T05:47:59;98753.50;;;-7.31;100.00
53011;BME280;42803;55.762;38.084;2022-11-18T05:50:31;98738.88;;;-7.26;100.00
53011;BME280;42803;55.762;38.084;2022-11-18T05:53:01;98744.28;;;-7.30;100.00
53011;BME280;42803;55.762;38.084;2022-11-18T05:55:35;98747.22;;;-7.27;100.00
53011;BME280;42803;55.762;38.084;2022-11-18T05:58:07;98743.06;;;-7.27;100.00
53011;BME280;42803;55.762;38.084;2022-11-18T06:00:37;98744.25;;;-7.18;100.00
53011;BME280;42803;55.762;38.084;2022-11-18T06:03:11;98756.84;;;-7.12;100.00
53011;BME280;42803;55.762;38.084;2022-11-18T06:05:41;98757.94;;;-7.10;100.00
53011;BME280;42803;55.762;38.084;2022-11-18T06:08:11;98741.41;;;-7.14;100.00
53011;BME280;42803;55.762;38.084;2022-11-18T06:10:44;98746.47;;;-7.14;100.00
53011;BME280;42803;55.762;38.084;2022-11-18T06:13:26;98724.88;;;-7.04;100.00
53011;BME280;42803;55.762;38.084;2022-11-18T06:15:58;98738.16;;;-7.00;100.00
53011;BME280;42803;55.762;38.084;2022-11-18T06:18:29;98737.97;;;-7.01;100.00
53011;BME280;42803;55.762;38.084;2022-11-18T06:21:00;98737.56;;;-7.04;100.00
53011;BME280;42803;55.762;38.084;2022-11-18T06:23:33;98751.66;;;-6.94;100.00
53011;BME280;42803;55.762;38.084;2022-11-18T06:26:04;98734.59;;;-6.95;100.00
53011;BME280;42803;55.762;38.084;2022-11-18T06:28:34;98736.75;;;-6.98;99.84
53011;BME280;42803;55.762;38.084;2022-11-18T06:31:04;98744.41;;;-6.91;100.00
53011;BME280;42803;55.762;38.084;2022-11-18T06:33:34;98740.75;;;-6.80;100.00
53011;BME280;42803;55.762;38.084;2022-11-18T06:36:03;98741.66;;;-6.79;100.00
53011;BME280;42803;55.762;38.084;2022-11-18T06:38:32;98742.97;;;-6.76;100.00
53011;BME280;42803;55.762;38.084;2022-11-18T06:41:01;98745.00;;;-6.73;99.66
53011;BME280;42803;55.762;38.084;2022-11-18T06:43:30;98730.38;;;-6.69;99.63
53011;BME280;42803;55.762;38.084;2022-11-18T06:46:15;98731.59;;;-6.72;99.73
53011;BME280;42803;55.762;38.084;2022-11-18T06:49:02;98741.06;;;-6.84;99.19
53011;BME280;42803;55.762;38.084;2022-11-18T06:51:31;98735.16;;;-6.77;99.50
53011;BME280;42803;55.762;38.084;2022-11-18T06:54:00;98736.56;;;-6.67;99.49
53011;BME280;42803;55.762;38.084;2022-11-18T06:56:37;98737.06;;;-6.69;99.42
53011;BME280;42803;55.762;38.084;2022-11-18T06:59:06;98738.13;;;-6.74;99.26
53011;BME280;42803;55.762;38.084;2022-11-18T07:01:38;98727.75;;;-6.76;99.31
53011;BME280;42803;55.762;38.084;2022-11-18T07:04:08;98729.28;;;-6.71;99.48
53011;BME280;42803;55.762;38.084;2022-11-18T07:06:38;98728.88;;;-6.74;99.04
53011;BME280;42803;55.762;38.084;2022-11-18T07:09:07;98739.22;;;-6.72;99.06
53011;BME280;42803;55.762;38.084;2022-11-18T07:11:36;98726.53;;;-6.72;98.93
53011;BME280;42803;55.762;38.084;2022-11-18T07:14:08;98732.50;;;-6.72;99.13
53011;BME280;42803;55.762;38.084;2022-11-18T07:16:39;98731.50;;;-6.67;99.04
53011;BME280;42803;55.762;38.084;2022-11-18T07:19:09;98730.13;;;-6.57;99.07
53011;BME280;42803;55.762;38.084;2022-11-18T07:21:39;98730.78;;;-6.66;98.79
53011;BME280;42803;55.762;38.084;2022-11-18T07:24:12;98744.97;;;-6.60;98.84
53011;BME280;42803;55.762;38.084;2022-11-18T07:26:42;98742.81;;;-6.57;98.84
53011;BME280;42803;55.762;38.084;2022-11-18T07:29:11;98732.75;;;-6.50;98.77
53011;BME280;42803;55.762;38.084;2022-11-18T07:31:41;98733.56;;;-6.44;98.40
53011;BME280;42803;55.762;38.084;2022-11-18T07:34:11;98723.00;;;-6.27;98.40
53011;BME280;42803;55.762;38.084;2022-11-18T07:36:40;98737.34;;;-6.28;98.01
53011;BME280;42803;55.762;38.084;2022-11-18T07:39:09;98734.06;;;-6.27;97.63
53011;BME280;42803;55.762;38.084;2022-11-18T07:41:39;98734.22;;;-6.13;97.55
53011;BME280;42803;55.762;38.084;2022-11-18T07:44:10;98725.63;;;-6.00;97.00
53011;BME280;42803;55.762;38.084;2022-11-18T07:46:40;98728.44;;;-5.84;97.08
53011;BME280;42803;55.762;38.084;2022-11-18T07:49:10;98724.81;;;-5.86;96.20
53011;BME280;42803;55.762;38.084;2022-11-18T07:51:39;98724.59;;;-5.95;95.65
53011;BME280;42803;55.762;38.084;2022-11-18T07:54:09;98734.34;;;-5.98;95.52
53011;BME280;42803;55.762;38.084;2022-11-18T07:56:44;98731.13;;;-5.90;95.78
53011;BME280;42803;55.762;38.084;2022-11-18T07:59:14;98737.34;;;-5.81;95.73
53011;BME280;42803;55.762;38.084;2022-11-18T08:01:45;98734.53;;;-5.70;95.50
53011;BME280;42803;55.762;38.084;2022-11-18T08:04:14;98724.75;;;-5.67;94.98
53011;BME280;42803;55.762;38.084;2022-11-18T08:06:44;98750.91;;;-5.68;94.69
53011;BME280;42803;55.762;38.084;2022-11-18T08:09:13;98754.13;;;-5.76;94.76
53011;BME280;42803;55.762;38.084;2022-11-18T08:11:42;98748.09;;;-5.76;94.97
53011;BME280;42803;55.762;38.084;2022-11-18T08:14:11;98763.09;;;-5.85;94.97
53011;BME280;42803;55.762;38.084;2022-11-18T08:16:41;98744.56;;;-5.84;95.22
53011;BME280;42803;55.762;38.084;2022-11-18T08:19:12;98753.31;;;-5.82;94.96
53011;BME280;42803;55.762;38.084;2022-11-18T08:21:42;98748.56;;;-5.86;94.91
53011;BME280;42803;55.762;38.084;2022-11-18T08:24:12;98751.13;;;-5.86;94.72
53011;BME280;42803;55.762;38.084;2022-11-18T08:26:42;98752.94;;;-5.85;94.80
53011;BME280;42803;55.762;38.084;2022-11-18T08:29:12;98742.91;;;-5.91;94.72
53011;BME280;42803;55.762;38.084;2022-11-18T08:31:48;98737.97;;;-5.96;95.08
53011;BME280;42803;55.762;38.084;2022-11-18T08:34:19;98754.28;;;-6.01;95.15
53011;BME280;42803;55.762;38.084;2022-11-18T08:36:48;98755.78;;;-5.96;95.28
53011;BME280;42803;55.762;38.084;2022-11-18T08:39:17;98757.25;;;-5.91;95.09
53011;BME280;42803;55.762;38.084;2022-11-18T08:41:46;98746.03;;;-5.86;95.15
53011;BME280;42803;55.762;38.084;2022-11-18T08:44:16;98764.53;;;-5.87;94.82
53011;BME280;42803;55.762;38.084;2022-11-18T08:46:45;98749.53;;;-5.78;95.08
53011;BME280;42803;55.762;38.084;2022-11-18T08:49:14;98745.19;;;-5.79;95.06
53011;BME280;42803;55.762;38.084;2022-11-18T08:51:46;98742.81;;;-5.78;94.65
53011;BME280;42803;55.762;38.084;2022-11-18T08:54:16;98742.38;;;-5.88;94.27
53011;BME280;42803;55.762;38.084;2022-11-18T08:56:45;98759.47;;;-5.87;94.54
53011;BME280;42803;55.762;38.084;2022-11-18T08:59:17;98750.94;;;-5.88;95.13
53011;BME280;42803;55.762;38.084;2022-11-18T09:01:46;98757.63;;;-5.88;95.15
53011;BME280;42803;55.762;38.084;2022-11-18T09:04:16;98774.38;;;-5.83;95.25
53011;BME280;42803;55.762;38.084;2022-11-18T09:06:46;98751.91;;;-5.80;95.36
53011;BME280;42803;55.762;38.084;2022-11-18T09:09:15;98757.00;;;-5.80;95.35
53011;BME280;42803;55.762;38.084;2022-11-18T09:11:44;98761.00;;;-5.75;95.06
53011;BME280;42803;55.762;38.084;2022-11-18T09:14:13;98761.41;;;-5.72;95.24
53011;BME280;42803;55.762;38.084;2022-11-18T09:17:02;98765.88;;;-5.76;95.26
53011;BME280;42803;55.762;38.084;2022-11-18T09:19:31;98769.03;;;-5.72;95.14
53011;BME280;42803;55.762;38.084;2022-11-18T09:22:16;98762.50;;;-5.90;95.14
53011;BME280;42803;55.762;38.084;2022-11-18T09:24:45;98782.09;;;-5.96;95.05
53011;BME280;42803;55.762;38.084;2022-11-18T09:27:14;98777.47;;;-6.05;95.50
53011;BME280;42803;55.762;38.084;2022-11-18T09:29:44;98765.88;;;-6.03;95.65
53011;BME280;42803;55.762;38.084;2022-11-18T09:32:13;98772.78;;;-6.02;95.74
53011;BME280;42803;55.762;38.084;2022-11-18T09:34:42;98769.53;;;-6.01;95.94
53011;BME280;42803;55.762;38.084;2022-11-18T09:37:12;98764.22;;;-6.03;95.90
53011;BME280;42803;55.762;38.084;2022-11-18T09:39:42;98775.25;;;-6.09;96.12
53011;BME280;42803;55.762;38.084;2022-11-18T09:42:19;98771.28;;;-6.07;96.37
53011;BME280;42803;55.762;38.084;2022-11-18T09:45:04;98785.81;;;-6.06;96.75
53011;BME280;42803;55.762;38.084;2022-11-18T09:47:49;98772.78;;;-6.02;96.38
53011;BME280;42803;55.762;38.084;2022-11-18T09:50:20;98769.53;;;-6.01;96.48
53011;BME280;42803;55.762;38.084;2022-11-18T09:53:24;98767.09;;;-6.07;96.47
53011;BME280;42803;55.762;38.084;2022-11-18T09:55:56;98775.66;;;-6.06;96.81
53011;BME280;42803;55.762;38.084;2022-11-18T09:58:28;98771.34;;;-6.00;96.98
53011;BME280;42803;55.762;38.084;2022-11-18T10:00:59;98775.75;;;-6.12;96.87
53011;BME280;42803;55.762;38.084;2022-11-18T10:03:31;98767.06;;;-6.14;97.29
53011;BME280;42803;55.762;38.084;2022-11-18T10:06:04;98783.28;;;-6.06;97.92
53011;BME280;42803;55.762;38.084;2022-11-18T10:08:57;98777.47;;;-6.05;98.03
53011;BME280;42803;55.762;38.084;2022-11-18T10:11:38;98785.41;;;-6.09;98.14
53011;BME280;42803;55.762;38.084;2022-11-18T10:14:21;98784.28;;;-6.11;98.33
53011;BME280;42803;55.762;38.084;2022-11-18T10:16:57;98794.44;;;-6.11;98.66
53011;BME280;42803;55.762;38.084;2022-11-18T10:19:33;98781.75;;;-6.11;98.83
53011;BME280;42803;55.762;38.084;2022-11-18T10:22:18;98788.97;;;-6.15;98.84
53011;BME280;42803;55.762;38.084;2022-11-18T10:24:52;98789.28;;;-6.19;99.03
53011;BME280;42803;55.762;38.084;2022-11-18T10:27:33;98797.78;;;-6.25;99.22
53011;BME280;42803;55.762;38.084;2022-11-18T10:30:10;98785.66;;;-6.21;99.57
53011;BME280;42803;55.762;38.084;2022-11-18T10:33:01;98787.16;;;-6.16;99.61
53011;BME280;42803;55.762;38.084;2022-11-18T10:35:33;98787.66;;;-6.18;99.64
53011;BME280;42803;55.762;38.084;2022-11-18T10:38:05;98789.94;;;-6.27;99.65
53011;BME280;42803;55.762;38.084;2022-11-18T10:40:37;98794.91;;;-6.21;100.00
53011;BME280;42803;55.762;38.084;2022-11-18T10:43:11;98789.03;;;-6.27;100.00
53011;BME280;42803;55.762;38.084;2022-11-18T10:45:41;98793.19;;;-6.28;100.00
53011;BME280;42803;55.762;38.084;2022-11-18T10:48:17;98806.09;;;-6.26;100.00
53011;BME280;42803;55.762;38.084;2022-11-18T10:50:47;98815.91;;;-6.09;100.00
53011;BME280;42803;55.762;38.084;2022-11-18T10:53:29;98808.78;;;-6.12;100.00
53011;BME280;42803;55.762;38.084;2022-11-18T10:56:00;98813.03;;;-6.05;100.00
53011;BME280;42803;55.762;38.084;2022-11-18T10:58:34;98804.28;;;-6.07;100.00
53011;BME280;42803;55.762;38.084;2022-11-18T11:01:05;98807.16;;;-6.11;100.00
53011;BME280;42803;55.762;38.084;2022-11-18T11:03:37;98807.97;;;-6.18;100.00
53011;BME280;42803;55.762;38.084;2022-11-18T11:06:31;98806.38;;;-6.18;100.00
53011;BME280;42803;55.762;38.084;2022-11-18T11:09:06;98820.56;;;-6.13;100.00
53011;BME280;42803;55.762;38.084;2022-11-18T11:11:37;98808.28;;;-6.09;100.00
53011;BME280;42803;55.762;38.084;2022-11-18T11:14:18;98809.09;;;-6.16;100.00
53011;BME280;42803;55.762;38.084;2022-11-18T11:17:00;98819.59;;;-6.20;100.00
53011;BME280;42803;55.762;38.084;2022-11-18T11:19:49;98811.47;;;-6.30;100.00
53011;BME280;42803;55.762;38.084;2022-11-18T11:22:19;98810.84;;;-6.22;100.00
53011;BME280;42803;55.762;38.084;2022-11-18T11:24:48;98817.94;;;-6.20;100.00
53011;BME280;42803;55.762;38.084;2022-11-18T11:27:32;98816.72;;;-6.16;100.00
53011;BME280;42803;55.762;38.084;2022-11-18T11:30:30;98829.94;;;-6.19;100.00
53011;BME280;42803;55.762;38.084;2022-11-18T11:33:25;98825.38;;;-6.21;100.00
53011;BME280;42803;55.762;38.084;2022-11-18T11:36:13;98823.50;;;-6.29;100.00
53011;BME280;42803;55.762;38.084;2022-11-18T11:38:54;98832.00;;;-6.29;100.00
53011;BME280;42803;55.762;38.084;2022-11-18T11:41:38;98820.81;;;-6.24;100.00
53011;BME280;42803;55.762;38.084;2022-11-18T11:44:31;98836.63;;;-6.06;100.00
53011;BME280;42803;55.762;38.084;2022-11-18T11:47:14;98833.47;;;-6.11;100.00
53011;BME280;42803;55.762;38.084;2022-11-18T11:50:12;98829.03;;;-6.19;100.00
53011;BME280;42803;55.762;38.084;2022-11-18T11:52:47;98831.09;;;-6.29;100.00
53011;BME280;42803;55.762;38.084;2022-11-18T11:55:21;98828.13;;;-6.20;100.00
53011;BME280;42803;55.762;38.084;2022-11-18T11:58:10;98833.00;;;-6.21;100.00
53011;BME280;42803;55.762;38.084;2022-11-18T12:00:45;98839.41;;;-6.18;100.00
53011;BME280;42803;55.762;38.084;2022-11-18T12:03:22;98843.34;;;-6.20;100.00
53011;BME280;42803;55.762;38.084;2022-11-18T12:05:56;98846.63;;;-6.21;100.00
53011;BME280;42803;55.762;38.084;2022-11-18T12:08:28;98858.19;;;-6.23;100.00
53011;BME280;42803;55.762;38.084;2022-11-18T12:11:02;98850.47;;;-6.30;100.00
53011;BME280;42803;55.762;38.084;2022-11-18T12:13:39;98866.16;;;-6.40;100.00
53011;BME280;42803;55.762;38.084;2022-11-18T12:16:23;98857.72;;;-6.33;100.00
53011;BME280;42803;55.762;38.084;2022-11-18T12:18:57;98873.97;;;-6.38;100.00
53011;BME280;42803;55.762;38.084;2022-11-18T12:21:51;98862.16;;;-6.25;100.00
53011;BME280;42803;55.762;38.084;2022-11-18T12:24:35;98871.19;;;-6.27;100.00
53011;BME280;42803;55.762;38.084;2022-11-18T12:27:10;98879.84;;;-6.32;100.00
53011;BME280;42803;55.762;38.084;2022-11-18T12:29:51;98869.78;;;-6.25;100.00
53011;BME280;42803;55.762;38.084;2022-11-18T12:32:29;98873.97;;;-6.38;100.00
53011;BME280;42803;55.762;38.084;2022-11-18T12:35:24;98878.44;;;-6.43;100.00
53011;BME280;42803;55.762;38.084;2022-11-18T12:38:01;98884.84;;;-6.39;100.00
53011;BME280;42803;55.762;38.084;2022-11-18T12:40:36;98881.16;;;-6.41;100.00
53011;BME280;42803;55.762;38.084;2022-11-18T12:46:48;98891.16;;;-6.55;100.00
53011;BME280;42803;55.762;38.084;2022-11-18T12:52:48;98894.78;;;-6.53;100.00
53011;BME280;42803;55.762;38.084;2022-11-18T12:55:25;98897.56;;;-6.52;100.00
53011;BME280;42803;55.762;38.084;2022-11-18T12:57:58;98900.28;;;-6.50;100.00
53011;BME280;42803;55.762;38.084;2022-11-18T13:00:30;98895.00;;;-6.39;100.00
53011;BME280;42803;55.762;38.084;2022-11-18T13:03:24;98894.88;;;-6.33;100.00
53011;BME280;42803;55.762;38.084;2022-11-18T13:06:00;98903.19;;;-6.34;100.00
53011;BME280;42803;55.762;38.084;2022-11-18T13:08:33;98898.66;;;-6.37;100.00
53011;BME280;42803;55.762;38.084;2022-11-18T13:11:09;98897.13;;;-6.42;100.00
53011;BME280;42803;55.762;38.084;2022-11-18T13:14:00;98901.47;;;-6.41;100.00
53011;BME280;42803;55.762;38.084;2022-11-18T13:16:47;98909.53;;;-6.51;100.00
53011;BME280;42803;55.762;38.084;2022-11-18T13:19:35;98910.03;;;-6.53;100.00
53011;BME280;42803;55.762;38.084;2022-11-18T13:22:15;98917.44;;;-6.55;100.00
53011;BME280;42803;55.762;38.084;2022-11-18T13:25:04;98915.00;;;-6.48;100.00
53011;BME280;42803;55.762;38.084;2022-11-18T13:27:41;98925.25;;;-6.53;100.00